createdAt,value
2018-08-11T00:01:32.457Z,13.40
2018-08-11T00:04:05.905Z,13.32
2018-08-11T00:06:39.402Z,13.23
2018-08-11T00:09:12.957Z,13.17
2018-08-11T00:11:46.410Z,13.11
2018-08-11T00:14:19.983Z,13.21
2018-08-11T00:16:53.501Z,13.26
2018-08-11T00:19:26.954Z,13.25
2018-08-11T00:22:00.424Z,13.20
2018-08-11T00:24:33.860Z,13.21
2018-08-11T00:27:07.391Z,13.17
2018-08-11T00:29:40.851Z,13.14
2018-08-11T00:32:14.284Z,13.11
2018-08-11T00:34:47.944Z,13.12
2018-08-11T00:37:21.430Z,13.15
2018-08-11T00:39:54.833Z,13.12
2018-08-11T00:42:28.275Z,13.10
2018-08-11T00:45:01.703Z,13.05
2018-08-11T00:47:35.297Z,13.07
2018-08-11T00:50:12.791Z,13.00
2018-08-11T00:52:46.299Z,12.97
2018-08-11T00:55:19.790Z,12.84
2018-08-11T00:57:53.289Z,12.86
2018-08-11T01:00:26.860Z,12.90
2018-08-11T01:03:00.408Z,12.90
2018-08-11T01:05:33.908Z,12.95
2018-08-11T01:08:07.347Z,13.00
2018-08-11T01:10:40.777Z,13.04
2018-08-11T01:13:14.351Z,13.05
2018-08-11T01:15:47.792Z,13.09
2018-08-11T01:18:21.276Z,13.12
2018-08-11T01:20:54.677Z,13.11
2018-08-11T01:23:28.137Z,13.09
2018-08-11T01:26:01.536Z,13.15
2018-08-11T01:28:35.003Z,13.24
2018-08-11T01:31:08.408Z,13.28
2018-08-11T01:33:41.838Z,13.33
2018-08-11T01:36:15.284Z,13.37
2018-08-11T01:38:48.744Z,13.46
2018-08-11T01:41:22.141Z,13.53
2018-08-11T01:43:55.611Z,13.53
2018-08-11T01:46:29.072Z,13.56
2018-08-11T01:49:02.623Z,13.61
2018-08-11T01:51:36.011Z,13.67
2018-08-11T01:54:09.426Z,13.73
2018-08-11T01:56:42.823Z,13.77
2018-08-11T01:59:16.273Z,13.78
2018-08-11T02:01:49.727Z,13.80
2018-08-11T02:04:23.130Z,13.84
2018-08-11T02:06:56.565Z,13.88
2018-08-11T02:09:30.004Z,13.89
2018-08-11T02:12:03.469Z,13.86
2018-08-11T02:14:36.904Z,13.84
2018-08-11T02:17:10.448Z,13.82
2018-08-11T02:19:43.847Z,13.83
2018-08-11T02:22:17.296Z,13.83
2018-08-11T02:24:50.757Z,13.87
2018-08-11T02:27:24.157Z,13.90
2018-08-11T02:29:57.596Z,13.90
2018-08-11T02:32:31.070Z,13.91
2018-08-11T02:35:05.289Z,13.95
2018-08-11T02:37:38.831Z,13.99
2018-08-11T02:40:13.554Z,14.03
2018-08-11T02:42:47.064Z,14.05
2018-08-11T02:45:20.506Z,14.09
2018-08-11T02:47:54.060Z,14.09
2018-08-11T02:50:27.475Z,14.10
2018-08-11T02:53:01.046Z,14.18
2018-08-11T02:55:34.417Z,14.24
2018-08-11T02:58:07.811Z,14.27
2018-08-11T03:00:41.268Z,14.27
2018-08-11T03:03:14.705Z,14.34
2018-08-11T03:05:48.079Z,14.31
2018-08-11T03:08:21.485Z,14.35
2018-08-11T03:10:54.882Z,14.32
2018-08-11T03:13:28.309Z,14.32
2018-08-11T03:16:01.712Z,14.28
2018-08-11T03:18:35.149Z,14.27
2018-08-11T03:21:08.615Z,14.31
2018-08-11T03:23:42.035Z,14.33
2018-08-11T03:26:15.453Z,14.37
2018-08-11T03:28:48.884Z,14.41
2018-08-11T03:31:22.371Z,14.41
2018-08-11T03:33:55.984Z,14.47
2018-08-11T03:36:29.420Z,14.51
2018-08-11T03:39:02.925Z,14.51
2018-08-11T03:41:36.379Z,14.54
2018-08-11T03:44:10.260Z,14.61
2018-08-11T03:46:43.696Z,14.69
2018-08-11T03:49:17.165Z,14.79
2018-08-11T03:51:50.625Z,14.87
2018-08-11T03:54:24.115Z,14.94
2018-08-11T03:56:57.545Z,14.98
2018-08-11T03:59:31.107Z,15.04
2018-08-11T04:02:04.614Z,15.07
2018-08-11T04:04:38.128Z,15.12
2018-08-11T04:07:11.621Z,15.17
2018-08-11T04:09:45.079Z,15.21
2018-08-11T04:12:18.588Z,15.21
2018-08-11T04:14:52.003Z,15.22
2018-08-11T04:17:29.568Z,15.28
2018-08-11T04:20:03.078Z,15.26
2018-08-11T04:22:36.653Z,15.28
2018-08-11T04:25:10.583Z,15.33
2018-08-11T04:27:43.983Z,15.34
2018-08-11T04:30:17.834Z,15.35
2018-08-11T04:32:51.230Z,15.41
2018-08-11T04:35:24.684Z,15.45
2018-08-11T04:37:58.066Z,15.48
2018-08-11T04:40:31.506Z,15.41
2018-08-11T04:43:04.888Z,15.43
2018-08-11T04:45:38.298Z,15.45
2018-08-11T04:48:11.776Z,15.46
2018-08-11T04:50:45.200Z,15.44
2018-08-11T04:53:18.597Z,15.41
2018-08-11T04:55:52.040Z,15.32
2018-08-11T04:58:25.442Z,15.33
2018-08-11T05:00:58.885Z,15.36
2018-08-11T05:03:32.290Z,15.40
2018-08-11T05:06:05.708Z,15.38
2018-08-11T05:08:39.116Z,15.40
2018-08-11T05:11:12.525Z,15.41
2018-08-11T05:13:45.966Z,15.43
2018-08-11T05:16:19.473Z,15.46
2018-08-11T05:18:52.895Z,15.49
2018-08-11T05:21:26.353Z,15.51
2018-08-11T05:23:59.754Z,15.52
2018-08-11T05:26:33.164Z,15.53
2018-08-11T05:29:06.837Z,15.51
2018-08-11T05:31:40.474Z,15.53
2018-08-11T05:34:14.046Z,15.54
2018-08-11T05:36:48.155Z,15.57
2018-08-11T05:39:21.733Z,15.58
2018-08-11T05:41:55.320Z,15.63
2018-08-11T05:44:28.906Z,15.67
2018-08-11T05:47:02.497Z,15.67
2018-08-11T05:49:36.125Z,15.70
2018-08-11T05:52:09.727Z,15.72
2018-08-11T05:54:43.319Z,15.60
2018-08-11T05:57:17.072Z,15.55
2018-08-11T05:59:50.662Z,15.53
2018-08-11T06:02:24.290Z,15.60
2018-08-11T06:04:57.909Z,15.64
2018-08-11T06:07:31.594Z,15.82
2018-08-11T06:10:06.698Z,16.09
2018-08-11T06:12:40.402Z,16.54
2018-08-11T06:15:14.088Z,16.93
2018-08-11T06:17:47.671Z,17.14
2018-08-11T06:20:21.307Z,17.15
2018-08-11T06:22:54.966Z,17.12
2018-08-11T06:25:28.615Z,17.07
2018-08-11T06:28:02.216Z,16.98
2018-08-11T06:30:35.892Z,16.90
2018-08-11T06:33:09.590Z,16.93
2018-08-11T06:35:43.148Z,16.87
2018-08-11T06:38:16.777Z,16.80
2018-08-11T06:40:50.474Z,16.90
2018-08-11T06:43:24.001Z,16.77
2018-08-11T06:45:57.419Z,16.82
2018-08-11T06:48:31.073Z,16.76
2018-08-11T06:51:04.788Z,16.79
2018-08-11T06:53:38.372Z,16.69
2018-08-11T06:56:11.842Z,16.64
2018-08-11T06:58:45.235Z,16.91
2018-08-11T07:01:18.784Z,17.38
2018-08-11T07:03:52.754Z,18.03
2018-08-11T07:06:26.203Z,18.33
2018-08-11T07:09:00.561Z,18.40
2018-08-11T07:11:34.718Z,18.49
2018-08-11T07:14:09.041Z,18.72
2018-08-11T07:16:43.491Z,18.80
2018-08-11T07:19:17.589Z,18.97
2018-08-11T07:21:51.991Z,19.11
2018-08-11T07:24:26.054Z,19.13
2018-08-11T07:27:00.499Z,19.12
2018-08-11T07:29:35.141Z,19.27
2018-08-11T07:32:09.821Z,19.51
2018-08-11T07:34:43.828Z,19.50
2018-08-11T07:37:18.255Z,19.35
2018-08-11T07:39:52.602Z,19.41
2018-08-11T07:42:27.549Z,19.47
2018-08-11T07:45:04.285Z,19.31
2018-08-11T07:47:38.796Z,19.24
2018-08-11T07:50:13.200Z,19.06
2018-08-11T07:52:47.164Z,18.93
2018-08-11T07:55:21.145Z,19.04
2018-08-11T07:57:55.173Z,19.04
2018-08-11T08:00:29.189Z,18.93
2018-08-11T08:03:03.410Z,18.95
2018-08-11T08:05:37.518Z,18.89
2018-08-11T08:08:11.302Z,18.92
2018-08-11T08:10:45.278Z,18.95
2018-08-11T08:13:19.076Z,18.93
2018-08-11T08:15:53.071Z,18.83
2018-08-11T08:18:27.142Z,18.94
2018-08-11T08:21:01.298Z,19.14
2018-08-11T08:23:35.403Z,19.35
2018-08-11T08:26:09.419Z,19.54
2018-08-11T08:28:43.458Z,19.48
2018-08-11T08:31:17.882Z,19.54
2018-08-11T08:33:51.933Z,19.99
2018-08-11T08:36:25.928Z,21.61
2018-08-11T08:38:59.908Z,22.65
2018-08-11T08:41:33.797Z,23.60
2018-08-11T08:44:07.988Z,23.41
2018-08-11T08:46:42.456Z,22.73
2018-08-11T08:49:16.546Z,22.33
2018-08-11T08:51:50.911Z,21.96
2018-08-11T08:54:25.120Z,21.90
2018-08-11T08:56:59.027Z,22.22
2018-08-11T08:59:33.078Z,22.74
2018-08-11T09:02:07.433Z,23.17
2018-08-11T09:04:40.970Z,24.09
2018-08-11T09:07:14.431Z,24.59
2018-08-11T09:09:47.977Z,24.61
2018-08-11T09:12:21.371Z,24.49
2018-08-11T09:14:54.841Z,23.69
2018-08-11T09:17:28.696Z,23.45
2018-08-11T09:20:02.176Z,23.22
2018-08-11T09:22:36.271Z,22.68
2018-08-11T09:25:10.064Z,22.87
2018-08-11T09:27:50.562Z,23.18
2018-08-11T09:30:24.766Z,23.23
2018-08-11T09:32:58.806Z,23.19
2018-08-11T09:35:33.041Z,22.99
2018-08-11T09:38:07.174Z,23.11
2018-08-11T09:40:43.476Z,22.98
2018-08-11T09:43:18.081Z,22.59
2018-08-11T09:45:52.569Z,22.43
2018-08-11T09:48:26.480Z,22.64
2018-08-11T09:51:00.282Z,22.55
2018-08-11T09:53:34.196Z,22.20
2018-08-11T09:56:08.173Z,21.71
2018-08-11T09:58:42.827Z,21.58
2018-08-11T10:01:22.439Z,21.30
2018-08-11T10:03:56.237Z,21.09
2018-08-11T10:06:29.688Z,21.08
2018-08-11T10:09:03.287Z,21.31
2018-08-11T10:11:36.852Z,21.54
2018-08-11T10:14:10.267Z,21.69
2018-08-11T10:16:43.681Z,22.02
2018-08-11T10:19:17.102Z,22.09
2018-08-11T10:21:50.545Z,22.16
2018-08-11T10:24:23.993Z,22.14
2018-08-11T10:26:57.454Z,22.02
2018-08-11T10:29:31.061Z,21.97
2018-08-11T10:32:04.457Z,21.99
2018-08-11T10:34:37.886Z,22.30
2018-08-11T10:37:11.282Z,22.23
2018-08-11T10:39:44.718Z,21.99
2018-08-11T10:42:18.079Z,21.72
2018-08-11T10:44:52.263Z,21.96
2018-08-11T10:47:25.729Z,22.17
2018-08-11T10:49:59.241Z,22.48
2018-08-11T10:52:34.075Z,22.35
2018-08-11T10:55:07.553Z,22.13
2018-08-11T10:57:40.976Z,21.64
2018-08-11T11:00:14.391Z,21.41
2018-08-11T11:02:47.767Z,21.22
2018-08-11T11:05:21.343Z,21.09
2018-08-11T11:07:54.726Z,20.97
2018-08-11T11:10:28.267Z,20.89
2018-08-11T11:13:01.665Z,20.81
2018-08-11T11:15:35.085Z,20.56
2018-08-11T11:18:08.485Z,20.24
2018-08-11T11:20:41.944Z,20.13
2018-08-11T11:23:15.400Z,20.09
2018-08-11T11:25:48.795Z,20.06
2018-08-11T11:28:22.178Z,19.92
2018-08-11T11:30:55.637Z,20.07
2018-08-11T11:33:29.151Z,20.14
2018-08-11T11:36:02.552Z,20.07
2018-08-11T11:38:36.032Z,20.08
2018-08-11T11:41:09.489Z,20.17
2018-08-11T11:43:42.996Z,20.36
2018-08-11T11:46:16.954Z,20.49
2018-08-11T11:48:50.461Z,20.58
2018-08-11T11:51:23.832Z,20.49
2018-08-11T11:53:57.295Z,20.48
2018-08-11T11:56:30.723Z,20.34
2018-08-11T11:59:04.156Z,20.28
2018-08-11T12:01:37.553Z,20.17
2018-08-11T12:04:10.972Z,20.19
2018-08-11T12:06:44.376Z,20.19
2018-08-11T12:09:17.816Z,20.16
2018-08-11T12:11:51.460Z,20.36
2018-08-11T12:14:24.868Z,20.54
2018-08-11T12:16:58.299Z,20.67
2018-08-11T12:19:31.746Z,20.84
2018-08-11T12:22:05.328Z,20.82
2018-08-11T12:24:38.981Z,20.67
2018-08-11T12:27:12.460Z,20.67
2018-08-11T12:29:46.154Z,20.71
2018-08-11T12:32:19.738Z,20.85
2018-08-11T12:34:53.344Z,21.14
2018-08-11T12:37:26.770Z,21.44
2018-08-11T12:40:00.290Z,21.74
2018-08-11T12:42:34.007Z,21.80
2018-08-11T12:45:07.464Z,21.75
2018-08-11T12:47:41.445Z,21.61
2018-08-11T12:50:14.872Z,21.51
2018-08-11T12:52:48.250Z,20.87
2018-08-11T12:55:21.688Z,20.10
2018-08-11T12:57:55.097Z,19.51
2018-08-11T13:00:28.540Z,19.03
2018-08-11T13:03:01.920Z,18.65
2018-08-11T13:05:35.422Z,18.32
2018-08-11T13:08:08.804Z,18.35
2018-08-11T13:10:42.194Z,18.39
2018-08-11T13:13:15.605Z,18.38
2018-08-11T13:15:49.089Z,18.29
2018-08-11T13:18:22.517Z,18.32
2018-08-11T13:20:56.227Z,18.30
2018-08-11T13:23:29.814Z,18.42
2018-08-11T13:26:03.798Z,18.64
2018-08-11T13:29:00.069Z,18.81
2018-08-11T13:31:37.067Z,19.05
2018-08-11T13:34:19.473Z,19.25
2018-08-11T13:39:36.966Z,19.33
2018-08-11T13:42:10.443Z,19.45
2018-08-11T13:44:43.844Z,19.60
2018-08-11T13:47:17.898Z,19.62
2018-08-11T13:49:51.316Z,19.78
2018-08-11T13:52:25.132Z,19.97
2018-08-11T13:54:58.945Z,20.16
2018-08-11T13:57:32.512Z,20.20
2018-08-11T14:00:07.483Z,20.36
2018-08-11T14:02:41.341Z,20.16
2018-08-11T14:05:15.007Z,20.14
2018-08-11T14:07:49.234Z,20.00
2018-08-11T14:10:23.218Z,19.93
2018-08-11T14:12:57.008Z,19.87
2018-08-11T14:15:30.940Z,19.82
2018-08-11T14:18:04.944Z,19.77
2018-08-11T14:20:38.766Z,19.76
2018-08-11T14:23:12.414Z,19.69
2018-08-11T14:25:46.741Z,19.58
2018-08-11T14:28:20.518Z,19.36
2018-08-11T14:30:54.284Z,19.17
2018-08-11T14:33:28.104Z,19.27
2018-08-11T14:36:02.037Z,19.36
2018-08-11T14:38:35.955Z,19.52
2018-08-11T14:41:09.713Z,19.56
2018-08-11T14:43:43.410Z,19.64
2018-08-11T14:46:17.342Z,19.64
2018-08-11T14:48:51.341Z,19.65
2018-08-11T14:51:25.188Z,19.72
2018-08-11T14:53:59.080Z,19.74
2018-08-11T14:56:32.564Z,19.83
2018-08-11T14:59:06.127Z,19.73
2018-08-11T15:01:39.627Z,19.90
2018-08-11T15:04:13.013Z,19.96
2018-08-11T15:06:46.418Z,20.01
2018-08-11T15:09:19.785Z,20.01
2018-08-11T15:11:53.182Z,20.08
2018-08-11T15:14:26.553Z,19.95
2018-08-11T15:17:00.060Z,19.86
2018-08-11T15:19:33.463Z,19.99
2018-08-11T15:22:06.915Z,20.05
2018-08-11T15:24:40.283Z,20.08
2018-08-11T15:27:13.697Z,20.19
2018-08-11T15:29:47.176Z,20.18
2018-08-11T15:32:20.561Z,20.23
2018-08-11T15:34:54.018Z,20.17
2018-08-11T15:37:27.443Z,20.21
2018-08-11T15:40:00.830Z,20.25
2018-08-11T15:42:34.321Z,20.17
2018-08-11T15:45:08.143Z,20.16
2018-08-11T15:47:41.543Z,20.26
2018-08-11T15:50:14.999Z,20.06
2018-08-11T15:52:48.398Z,20.06
2018-08-11T15:55:21.789Z,20.03
2018-08-11T15:57:55.192Z,20.16
2018-08-11T16:00:28.769Z,20.18
2018-08-11T16:03:02.170Z,20.19
2018-08-11T16:05:35.579Z,20.16
2018-08-11T16:08:08.969Z,20.07
2018-08-11T16:10:42.355Z,20.12
2018-08-11T16:13:15.787Z,20.02
2018-08-11T16:15:49.195Z,20.03
2018-08-11T16:18:22.599Z,20.13
2018-08-11T16:20:55.972Z,20.17
2018-08-11T16:23:29.414Z,20.06
2018-08-11T16:26:02.785Z,19.98
2018-08-11T16:28:36.320Z,19.97
2018-08-11T16:31:09.723Z,20.01
2018-08-11T16:33:43.309Z,20.00
2018-08-11T16:36:16.760Z,20.11
2018-08-11T16:38:54.266Z,20.08
2018-08-11T16:41:27.734Z,20.12
2018-08-11T16:44:01.167Z,20.07
2018-08-11T16:46:34.561Z,20.07
2018-08-11T16:49:07.963Z,20.10
2018-08-11T16:51:41.337Z,20.10
2018-08-11T16:54:14.714Z,20.05
2018-08-11T16:56:48.089Z,20.02
2018-08-11T16:59:21.504Z,19.99
2018-08-11T17:01:54.961Z,19.92
2018-08-11T17:04:28.372Z,19.88
2018-08-11T17:07:01.806Z,19.85
2018-08-11T17:09:35.181Z,19.86
2018-08-11T17:12:08.663Z,19.80
2018-08-11T17:14:42.124Z,19.79
2018-08-11T17:17:15.477Z,19.78
2018-08-11T17:19:48.839Z,19.79
2018-08-11T17:22:22.236Z,19.83
2018-08-11T17:24:55.595Z,19.87
2018-08-11T17:27:29.023Z,19.81
2018-08-11T17:30:02.419Z,19.83
2018-08-11T17:32:36.035Z,19.91
2018-08-11T17:35:09.362Z,19.93
2018-08-11T17:37:42.760Z,19.87
2018-08-11T17:40:16.142Z,20.00
2018-08-11T17:42:49.563Z,20.01
2018-08-11T17:45:23.030Z,20.06
2018-08-11T17:47:56.424Z,19.99
2018-08-11T17:50:29.841Z,19.94
2018-08-11T17:53:03.262Z,19.77
2018-08-11T17:55:36.741Z,19.66
2018-08-11T17:58:10.052Z,19.64
2018-08-11T18:00:43.466Z,19.61
2018-08-11T18:03:16.918Z,19.60
2018-08-11T18:05:50.306Z,19.61
2018-08-11T18:08:23.769Z,19.50
2018-08-11T18:10:57.162Z,19.50
2018-08-11T18:13:30.559Z,19.42
2018-08-11T18:16:03.976Z,19.31
2018-08-11T18:18:37.383Z,19.22
2018-08-11T18:21:10.822Z,19.11
2018-08-11T18:23:44.220Z,19.06
2018-08-11T18:26:18.571Z,19.06
2018-08-11T18:28:52.820Z,19.04
2018-08-11T18:31:28.607Z,18.98
2018-08-11T18:34:02.795Z,18.89
2018-08-11T18:36:36.712Z,18.84
2018-08-11T18:39:12.710Z,18.81
2018-08-11T18:41:46.721Z,18.76
2018-08-11T18:44:20.919Z,18.71
2018-08-11T18:46:56.122Z,18.64
2018-08-11T18:49:30.335Z,18.64
2018-08-11T18:52:04.794Z,18.58
2018-08-11T18:54:38.615Z,18.57
2018-08-11T18:57:12.724Z,18.52
2018-08-11T18:59:46.867Z,18.46
2018-08-11T19:02:20.977Z,18.41
2018-08-11T19:04:55.209Z,18.35
2018-08-11T19:07:29.542Z,18.30
2018-08-11T19:10:03.010Z,18.22
2018-08-11T19:12:37.017Z,18.12
2018-08-11T19:15:13.320Z,18.02
2018-08-11T19:17:46.730Z,17.94
2018-08-11T19:20:20.262Z,17.85
2018-08-11T19:22:53.851Z,17.78
2018-08-11T19:25:27.379Z,17.70
2018-08-11T19:28:01.465Z,17.59
2018-08-11T19:30:35.663Z,17.54
2018-08-11T19:33:09.970Z,17.48
2018-08-11T19:35:44.109Z,17.43
2018-08-11T19:38:18.306Z,17.39
2018-08-11T19:40:52.569Z,17.34
2018-08-11T19:43:26.984Z,17.28
2018-08-11T19:46:01.330Z,17.20
2018-08-11T19:48:35.472Z,17.11
2018-08-11T19:51:09.872Z,17.00
2018-08-11T19:53:44.076Z,16.79
2018-08-11T19:56:19.014Z,16.66
2018-08-11T19:58:53.116Z,16.60
2018-08-11T20:01:27.337Z,16.58
2018-08-11T20:04:01.647Z,16.57
2018-08-11T20:06:36.532Z,16.54
2018-08-11T20:09:10.506Z,16.45
2018-08-11T20:11:43.905Z,16.36
2018-08-11T20:14:17.327Z,16.20
2018-08-11T20:16:50.709Z,16.12
2018-08-11T20:19:24.351Z,16.08
2018-08-11T20:21:57.563Z,16.02
2018-08-11T20:24:30.981Z,15.92
2018-08-11T20:27:04.409Z,15.82
2018-08-11T20:29:39.180Z,15.78
2018-08-11T20:32:13.798Z,15.74
2018-08-11T20:34:47.238Z,15.68
2018-08-11T20:37:20.821Z,15.66
2018-08-11T20:39:54.393Z,15.62
2018-08-11T20:42:27.923Z,15.62
2018-08-11T20:45:01.382Z,15.59
2018-08-11T20:47:34.780Z,15.54
2018-08-11T20:50:08.901Z,15.51
2018-08-11T20:52:42.637Z,15.47
2018-08-11T20:55:16.082Z,15.45
2018-08-11T20:57:49.446Z,15.38
2018-08-11T21:00:22.909Z,15.32
2018-08-11T21:02:56.263Z,15.28
2018-08-11T21:05:29.732Z,15.26
2018-08-11T21:08:03.153Z,15.23
2018-08-11T21:10:36.576Z,15.23
2018-08-11T21:13:10.040Z,15.19
2018-08-11T21:15:43.467Z,15.15
2018-08-11T21:18:16.960Z,15.09
2018-08-11T21:20:50.361Z,14.92
2018-08-11T21:23:23.772Z,14.89
2018-08-11T21:25:57.196Z,14.87
2018-08-11T21:28:30.829Z,14.86
2018-08-11T21:31:04.368Z,14.84
2018-08-11T21:33:37.736Z,14.83
2018-08-11T21:36:11.190Z,14.80
2018-08-11T21:38:44.570Z,14.70
2018-08-11T21:41:18.256Z,14.65
2018-08-11T21:43:51.654Z,14.59
2018-08-11T21:46:25.081Z,14.55
2018-08-11T21:48:58.505Z,14.46
2018-08-11T21:51:31.936Z,14.47
2018-08-11T21:54:05.331Z,14.47
2018-08-11T21:56:38.825Z,14.46
2018-08-11T21:59:12.223Z,14.45
2018-08-11T22:01:46.751Z,14.41
2018-08-11T22:04:20.500Z,14.36
2018-08-11T22:06:54.004Z,14.29
2018-08-11T22:09:27.523Z,14.22
2018-08-11T22:12:01.310Z,14.15
2018-08-11T22:14:35.014Z,14.11
2018-08-11T22:17:08.582Z,14.10
2018-08-11T22:19:42.179Z,14.09
2018-08-11T22:22:15.750Z,14.05
2018-08-11T22:24:49.406Z,13.99
2018-08-11T22:27:22.998Z,14.04
2018-08-11T22:29:56.498Z,14.05
2018-08-11T22:32:30.121Z,14.05
2018-08-11T22:35:04.547Z,14.05
2018-08-11T22:37:38.091Z,13.97
2018-08-11T22:40:11.687Z,13.92
2018-08-11T22:42:45.299Z,13.90
2018-08-11T22:45:18.965Z,13.94
2018-08-11T22:47:52.532Z,13.89
2018-08-11T22:50:26.010Z,13.90
2018-08-11T22:52:59.588Z,13.93
2018-08-11T22:55:33.214Z,13.92
2018-08-11T22:58:06.948Z,13.92
2018-08-11T23:00:40.543Z,13.91
2018-08-11T23:03:14.061Z,13.90
2018-08-11T23:05:47.737Z,13.91
2018-08-11T23:08:21.297Z,13.91
2018-08-11T23:10:55.021Z,13.92
2018-08-11T23:13:28.675Z,13.94
2018-08-11T23:16:02.267Z,13.94
2018-08-11T23:18:35.966Z,13.96
2018-08-11T23:21:09.617Z,13.97
2018-08-11T23:23:43.200Z,13.98
2018-08-11T23:26:16.696Z,13.98
2018-08-11T23:28:50.292Z,13.98
2018-08-11T23:31:23.948Z,13.93
2018-08-11T23:33:57.507Z,13.90
2018-08-11T23:36:31.048Z,13.88
2018-08-11T23:39:07.234Z,13.87
2018-08-11T23:41:41.511Z,13.84
2018-08-11T23:44:14.954Z,13.80
2018-08-11T23:46:48.536Z,13.76
2018-08-11T23:49:22.026Z,13.79
2018-08-11T23:51:55.582Z,13.83
2018-08-11T23:54:29.109Z,13.84
2018-08-11T23:57:03.105Z,13.83
2018-08-11T23:59:36.914Z,13.77
